Time;durP1;ratioP1;P1;durP2;ratioP2;P2;SDS_P1;SDS_P2;PMS_P1;PMS_P2;Temp;Humidity;BMP_temperature;BMP_pressure;BME280_temperature;BME280_humidity;BME280_pressure;Samples;Min_cycle;Max_cycle;Signal;HPM_P1;HPM_P2
2023/02/10 00:01:14;;;;;;;45.70;34.10;;;1.40;99.90;;;;;;5016890;28;20041;-75
2023/02/10 00:03:41;;;;;;;47.20;31.93;;;1.30;99.90;;;;;;5018346;28;20158;-75
2023/02/10 00:06:08;;;;;;;55.08;36.72;;;1.30;99.90;;;;;;4988130;28;20661;-75
2023/02/10 00:08:34;;;;;;;56.63;36.53;;;1.30;99.90;;;;;;4988053;28;20488;-75
2023/02/10 00:11:06;;;;;;;49.23;35.47;;;1.30;99.90;;;;;;5003881;28;20057;-75
2023/02/10 00:13:33;;;;;;;51.43;36.63;;;1.30;99.90;;;;;;5005989;28;20048;-75
2023/02/10 00:16:03;;;;;;;63.83;36.37;;;1.30;99.90;;;;;;5017046;28;20385;-75
2023/02/10 00:18:28;;;;;;;55.88;36.75;;;1.30;99.90;;;;;;5006352;28;20041;-75
2023/02/10 00:21:06;;;;;;;65.90;40.40;;;1.30;99.90;;;;;;4987538;28;20052;-75
2023/02/10 00:23:31;;;;;;;46.70;34.07;;;1.30;99.90;;;;;;5004924;28;20044;-75
2023/02/10 00:25:57;;;;;;;44.77;33.70;;;1.20;99.90;;;;;;5000489;28;20472;-75
2023/02/10 00:28:23;;;;;;;40.43;30.27;;;1.20;99.90;;;;;;5018346;28;20511;-75
2023/02/10 00:30:49;;;;;;;40.63;31.30;;;1.20;99.90;;;;;;4988030;28;20041;-75
2023/02/10 00:33:14;;;;;;;48.13;33.27;;;1.10;99.90;;;;;;4980273;28;20060;-75
2023/02/10 00:35:40;;;;;;;52.43;35.20;;;1.10;99.90;;;;;;5026273;28;20421;-75
2023/02/10 00:38:06;;;;;;;47.83;32.83;;;1.00;99.90;;;;;;4982914;28;20048;-76
2023/02/10 00:40:31;;;;;;;55.37;37.30;;;1.10;99.90;;;;;;5006985;28;20041;-75
2023/02/10 00:42:57;;;;;;;43.80;30.93;;;1.00;99.90;;;;;;4976545;28;20116;-75
2023/02/10 00:45:23;;;;;;;39.10;29.80;;;1.00;99.90;;;;;;4976065;28;20048;-75
2023/02/10 00:47:49;;;;;;;44.63;32.70;;;1.00;99.90;;;;;;5008638;28;20049;-75
2023/02/10 00:50:15;;;;;;;42.07;30.67;;;1.00;99.90;;;;;;4974358;28;20041;-75
2023/02/10 00:52:41;;;;;;;44.37;31.30;;;1.00;99.90;;;;;;4989948;28;20111;-75
2023/02/10 00:55:07;;;;;;;34.57;27.93;;;0.90;99.90;;;;;;5007873;28;20045;-75
2023/02/10 00:57:33;;;;;;;47.13;33.23;;;0.90;99.90;;;;;;5004901;28;20064;-75
2023/02/10 00:59:58;;;;;;;42.80;30.87;;;0.90;99.90;;;;;;4992218;28;20100;-75
2023/02/10 01:02:25;;;;;;;41.17;31.07;;;0.90;99.90;;;;;;5022153;28;20037;-75
2023/02/10 01:04:51;;;;;;;39.93;29.13;;;0.90;99.90;;;;;;5023268;28;20556;-75
2023/02/10 01:07:16;;;;;;;41.07;28.77;;;0.90;99.90;;;;;;5001556;28;20041;-75
2023/02/10 01:09:42;;;;;;;36.63;27.33;;;0.80;99.90;;;;;;4973839;28;20487;-75
2023/02/10 01:12:08;;;;;;;50.70;33.43;;;0.80;99.90;;;;;;5021653;28;20098;-75
2023/02/10 01:14:34;;;;;;;37.63;28.17;;;0.70;99.90;;;;;;4988726;28;20052;-74
2023/02/10 01:17:00;;;;;;;41.57;29.60;;;0.80;99.90;;;;;;5006103;28;20037;-74
2023/02/10 01:19:26;;;;;;;38.13;26.93;;;0.80;99.90;;;;;;5019690;28;20044;-74
2023/02/10 01:21:52;;;;;;;59.57;32.87;;;0.70;99.90;;;;;;4986283;28;20049;-74
2023/02/10 01:24:17;;;;;;;45.77;29.57;;;0.80;99.90;;;;;;4974364;28;20033;-73
2023/02/10 01:26:43;;;;;;;43.83;28.80;;;0.70;99.90;;;;;;4985741;28;20033;-74
2023/02/10 01:29:09;;;;;;;58.80;32.97;;;0.80;99.90;;;;;;4989225;28;20052;-73
2023/02/10 01:31:35;;;;;;;45.07;28.97;;;0.70;99.90;;;;;;4987960;28;20629;-73
2023/02/10 01:34:01;;;;;;;38.60;26.57;;;0.80;99.90;;;;;;4987411;28;20056;-74
2023/02/10 01:36:27;;;;;;;40.47;27.33;;;0.80;99.90;;;;;;5022313;28;20040;-74
2023/02/10 01:38:53;;;;;;;41.90;27.43;;;0.70;99.90;;;;;;5022942;28;20064;-74
2023/02/10 01:41:21;;;;;;;46.20;29.27;;;0.80;99.90;;;;;;4994696;28;20037;-74
2023/02/10 01:43:57;;;;;;;36.73;25.80;;;0.80;99.90;;;;;;4999124;28;20053;-74
2023/02/10 01:46:23;;;;;;;40.37;26.50;;;0.70;99.90;;;;;;5020969;28;20052;-74
2023/02/10 01:48:49;;;;;;;32.80;23.50;;;0.70;99.90;;;;;;5003035;28;20487;-74
2023/02/10 01:51:18;;;;;;;40.90;28.07;;;0.70;99.90;;;;;;5017848;28;20038;-74
2023/02/10 01:53:44;;;;;;;65.60;34.87;;;0.70;99.90;;;;;;5020971;28;20663;-74
2023/02/10 01:56:14;;;;;;;46.80;30.07;;;0.70;99.90;;;;;;5021274;28;20448;-74
2023/02/10 01:58:41;;;;;;;39.00;26.27;;;0.70;99.90;;;;;;5017275;28;20517;-74
2023/02/10 02:01:07;;;;;;;42.80;28.53;;;0.60;99.90;;;;;;5021056;28;20053;-74
2023/02/10 02:03:33;;;;;;;40.13;27.37;;;0.70;99.90;;;;;;5019259;28;20057;-74
2023/02/10 02:05:59;;;;;;;41.37;27.73;;;0.60;99.90;;;;;;5020084;28;20041;-74
2023/02/10 02:08:28;;;;;;;49.33;30.67;;;0.60;99.90;;;;;;4976768;28;20052;-74
2023/02/10 02:11:20;;;;;;;47.27;32.03;;;0.60;99.90;;;;;;5004945;28;20050;-74
2023/02/10 02:14:12;;;;;;;41.90;27.67;;;0.60;99.90;;;;;;5019149;28;20094;-74
2023/02/10 02:16:50;;;;;;;44.10;30.40;;;0.50;99.90;;;;;;4966629;28;20049;-74
2023/02/10 02:19:47;;;;;;;42.03;29.20;;;0.50;99.90;;;;;;5019212;28;20049;-74
2023/02/10 02:22:22;;;;;;;54.07;36.63;;;0.50;99.90;;;;;;5000760;28;20053;-74
2023/02/10 02:25:09;;;;;;;50.30;33.63;;;0.50;99.90;;;;;;5018233;28;20507;-74
2023/02/10 02:28:03;;;;;;;44.57;30.07;;;0.50;99.90;;;;;;5018540;28;20052;-74
2023/02/10 02:31:07;;;;;;;34.80;27.83;;;0.50;99.90;;;;;;5019282;28;20132;-74
2023/02/10 02:34:00;;;;;;;41.57;29.40;;;0.50;99.90;;;;;;4991787;28;20053;-74
2023/02/10 02:36:40;;;;;;;55.03;36.70;;;0.50;99.90;;;;;;4973135;28;20053;-74
2023/02/10 02:39:06;;;;;;;57.17;35.65;;;0.50;99.90;;;;;;5017679;28;20045;-74
2023/02/10 02:41:33;;;;;;;51.13;34.90;;;0.40;99.90;;;;;;5016962;28;20041;-75
2023/02/10 02:44:02;;;;;;;43.93;32.03;;;0.40;99.90;;;;;;5004121;28;20104;-74
2023/02/10 02:46:52;;;;;;;58.70;36.70;;;0.40;99.90;;;;;;5018256;28;20484;-74
2023/02/10 02:49:50;;;;;;;57.13;36.08;;;0.50;99.90;;;;;;5017677;28;20029;-74
2023/02/10 02:52:27;;;;;;;44.57;30.20;;;0.40;99.90;;;;;;5005310;28;20044;-74
2023/02/10 02:55:24;;;;;;;45.80;32.53;;;0.40;99.90;;;;;;5018551;28;20573;-75
2023/02/10 02:58:11;;;;;;;54.50;34.10;;;0.50;99.90;;;;;;5004930;28;20049;-75
2023/02/10 03:00:39;;;;;;;51.03;33.83;;;0.50;99.90;;;;;;5017160;28;20106;-75
2023/02/10 03:03:06;;;;;;;44.23;31.60;;;0.50;99.90;;;;;;5020695;28;20048;-75
2023/02/10 03:05:32;;;;;;;43.90;29.83;;;0.50;99.90;;;;;;5017090;28;20073;-75
2023/02/10 03:07:58;;;;;;;45.43;32.70;;;0.60;99.90;;;;;;5005799;28;20049;-76
2023/02/10 03:10:27;;;;;;;48.77;32.57;;;0.50;99.90;;;;;;5003754;28;20391;-75
2023/02/10 03:12:53;;;;;;;49.97;34.57;;;0.60;99.90;;;;;;5022929;28;20518;-75
2023/02/10 03:15:19;;;;;;;70.43;42.13;;;0.50;99.90;;;;;;5000625;28;20076;-75
2023/02/10 03:17:45;;;;;;;56.77;35.27;;;0.50;99.90;;;;;;4999621;28;20765;-75
2023/02/10 03:20:11;;;;;;;66.20;38.93;;;0.60;99.90;;;;;;4998456;28;20064;-75
2023/02/10 03:22:37;;;;;;;44.00;32.03;;;0.50;99.90;;;;;;5004447;28;20053;-75
2023/02/10 03:25:03;;;;;;;46.40;30.67;;;0.60;99.90;;;;;;4971063;28;20053;-75
2023/02/10 03:27:29;;;;;;;47.53;32.53;;;0.50;99.90;;;;;;5019036;28;20117;-75
2023/02/10 03:29:58;;;;;;;58.23;35.63;;;0.50;99.90;;;;;;4982926;28;20134;-75
2023/02/10 03:32:23;;;;;;;53.70;31.97;;;0.50;99.90;;;;;;4999102;28;20140;-75
2023/02/10 03:34:49;;;;;;;49.40;33.97;;;0.60;99.90;;;;;;5017631;28;20124;-75
2023/02/10 03:37:15;;;;;;;65.87;40.00;;;0.60;99.90;;;;;;4986417;28;20384;-76
2023/02/10 03:39:41;;;;;;;63.47;39.30;;;0.70;99.90;;;;;;4967017;28;20052;-75
2023/02/10 03:42:07;;;;;;;59.17;36.77;;;0.60;99.90;;;;;;5001726;28;20048;-75
2023/02/10 03:44:33;;;;;;;39.57;28.10;;;0.60;99.90;;;;;;4986421;28;20041;-75
2023/02/10 03:46:58;;;;;;;35.20;28.30;;;0.50;99.90;;;;;;4996906;28;20034;-75
2023/02/10 03:49:24;;;;;;;31.93;24.83;;;0.50;99.90;;;;;;5014968;28;20403;-75
2023/02/10 03:51:53;;;;;;;35.27;25.17;;;0.50;99.90;;;;;;5014897;28;20049;-75
2023/02/10 03:54:18;;;;;;;37.03;26.67;;;0.40;99.90;;;;;;4998827;28;20057;-75
2023/02/10 03:56:44;;;;;;;49.03;32.97;;;0.40;99.90;;;;;;4995820;28;20132;-75
2023/02/10 03:59:10;;;;;;;45.33;29.90;;;0.40;99.90;;;;;;4999174;28;20045;-75
2023/02/10 04:01:36;;;;;;;42.57;31.03;;;0.40;99.90;;;;;;4985160;28;20714;-75
2023/02/10 04:04:02;;;;;;;54.83;35.83;;;0.40;99.90;;;;;;4998993;28;20445;-75
2023/02/10 04:06:28;;;;;;;45.33;31.83;;;0.40;99.90;;;;;;5012482;28;20042;-75
2023/02/10 04:08:53;;;;;;;50.10;32.70;;;0.40;99.90;;;;;;5015731;28;20116;-75
2023/02/10 04:11:19;;;;;;;46.30;32.33;;;0.40;99.90;;;;;;5002680;28;20033;-76
2023/02/10 04:13:46;;;;;;;50.37;35.37;;;0.40;99.90;;;;;;5004119;28;20132;-76
2023/02/10 04:16:14;;;;;;;46.97;33.47;;;0.40;99.90;;;;;;5014633;28;20140;-77
2023/02/10 04:18:41;;;;;;;53.00;37.73;;;0.40;99.90;;;;;;4999469;28;20548;-76
2023/02/10 04:21:09;;;;;;;45.07;32.47;;;0.30;99.90;;;;;;5005961;28;20129;-76
2023/02/10 04:23:36;;;;;;;39.83;31.50;;;0.30;99.90;;;;;;5018530;28;20048;-76
2023/02/10 04:26:02;;;;;;;45.30;31.60;;;0.40;99.90;;;;;;4988986;28;20048;-76
2023/02/10 04:28:28;;;;;;;52.37;35.67;;;0.40;99.90;;;;;;5016097;28;20048;-76
2023/02/10 04:30:56;;;;;;;40.23;29.43;;;0.30;99.90;;;;;;5005788;28;20045;-76
2023/02/10 04:33:24;;;;;;;66.33;43.17;;;0.30;99.90;;;;;;5018044;28;20050;-76
2023/02/10 04:35:52;;;;;;;64.90;43.53;;;0.40;99.90;;;;;;5003053;28;20163;-76
2023/02/10 04:38:18;;;;;;;56.77;39.73;;;0.50;99.90;;;;;;5000532;28;20037;-76
2023/02/10 04:40:44;;;;;;;47.57;34.67;;;0.40;99.90;;;;;;5003653;28;20072;-76
2023/02/10 04:43:11;;;;;;;54.33;36.90;;;0.40;99.90;;;;;;5017951;28;20058;-76
2023/02/10 04:45:37;;;;;;;51.60;35.07;;;0.40;99.90;;;;;;5003540;28;20052;-76
2023/02/10 04:48:03;;;;;;;65.90;41.33;;;0.50;99.90;;;;;;5005437;28;20045;-76
2023/02/10 04:50:29;;;;;;;64.70;39.90;;;0.50;99.90;;;;;;4987261;28;20037;-76
2023/02/10 04:52:55;;;;;;;55.07;37.87;;;0.50;99.90;;;;;;4984645;28;20123;-76
2023/02/10 04:55:22;;;;;;;57.03;38.83;;;0.60;99.90;;;;;;4987061;28;20045;-76
2023/02/10 04:57:48;;;;;;;64.93;41.43;;;0.70;99.90;;;;;;5001156;28;20136;-76
2023/02/10 05:00:14;;;;;;;57.70;39.50;;;0.60;99.90;;;;;;5014027;28;20438;-76
2023/02/10 05:02:40;;;;;;;54.07;36.20;;;0.70;99.90;;;;;;4986179;28;20045;-76
2023/02/10 05:05:06;;;;;;;54.10;35.90;;;0.70;99.90;;;;;;5018962;28;20057;-76
2023/02/10 05:07:32;;;;;;;54.50;36.07;;;0.70;99.90;;;;;;5018184;28;20052;-75
2023/02/10 05:09:58;;;;;;;58.27;39.50;;;0.70;99.90;;;;;;5013337;28;20061;-75
2023/02/10 05:12:24;;;;;;;43.93;32.17;;;0.70;99.90;;;;;;5002295;28;20049;-76
2023/02/10 05:14:50;;;;;;;46.80;33.43;;;0.80;99.90;;;;;;5003130;28;20057;-75
2023/02/10 05:17:15;;;;;;;39.47;30.43;;;0.70;99.90;;;;;;4999056;28;20132;-75
2023/02/10 05:19:41;;;;;;;45.07;30.07;;;0.70;99.90;;;;;;4986121;28;20217;-75
2023/02/10 05:22:07;;;;;;;47.57;30.67;;;0.70;99.90;;;;;;4999611;28;20053;-75
2023/02/10 05:24:33;;;;;;;42.40;30.70;;;0.70;99.90;;;;;;5000175;28;20812;-75
2023/02/10 05:27:01;;;;;;;43.20;30.27;;;0.70;99.90;;;;;;4987280;28;20407;-75
2023/02/10 05:29:27;;;;;;;52.07;33.83;;;0.70;99.90;;;;;;4970669;28;20072;-75
2023/02/10 05:31:56;;;;;;;38.17;28.33;;;0.70;99.90;;;;;;4984750;28;20060;-75
2023/02/10 05:34:22;;;;;;;47.83;32.50;;;0.70;99.90;;;;;;5000376;28;20045;-75
2023/02/10 05:36:49;;;;;;;41.47;28.43;;;0.70;99.90;;;;;;4986790;28;20103;-75
2023/02/10 05:39:24;;;;;;;45.90;30.10;;;0.70;99.90;;;;;;5001968;28;20705;-75
2023/02/10 05:41:57;;;;;;;51.80;33.40;;;0.70;99.90;;;;;;4985513;28;20544;-76
2023/02/10 05:44:28;;;;;;;44.10;30.30;;;0.70;99.90;;;;;;5002382;28;20060;-75
2023/02/10 05:47:04;;;;;;;48.45;32.05;;;0.70;99.90;;;;;;5015759;28;20037;-75
2023/02/10 05:49:31;;;;;;;41.63;29.63;;;0.70;99.90;;;;;;5000877;28;20197;-75
2023/02/10 05:51:57;;;;;;;46.83;30.33;;;0.70;99.90;;;;;;5000446;28;20073;-75
2023/02/10 05:54:23;;;;;;;47.10;33.33;;;0.80;99.90;;;;;;4983549;28;20065;-76
2023/02/10 05:56:50;;;;;;;45.70;32.20;;;0.80;99.90;;;;;;5015548;28;20050;-75
2023/02/10 05:59:16;;;;;;;49.73;31.70;;;0.80;99.90;;;;;;5011998;28;20389;-75
2023/02/10 06:01:45;;;;;;;47.00;32.17;;;0.90;99.90;;;;;;5003357;28;20157;-76
2023/02/10 06:04:11;;;;;;;49.17;31.33;;;0.90;99.90;;;;;;4984965;28;20038;-76
2023/02/10 06:06:37;;;;;;;48.43;32.40;;;0.90;99.90;;;;;;4983960;28;20404;-76
2023/02/10 06:09:03;;;;;;;42.93;30.60;;;1.00;99.90;;;;;;4985405;28;20416;-75
2023/02/10 06:11:29;;;;;;;48.93;32.40;;;1.00;99.90;;;;;;5016193;28;20042;-75
2023/02/10 06:13:55;;;;;;;41.20;31.00;;;0.90;99.90;;;;;;5001907;28;20110;-76
2023/02/10 06:16:25;;;;;;;45.60;30.43;;;0.90;99.90;;;;;;4968527;28;20128;-75
2023/02/10 06:18:50;;;;;;;44.90;29.77;;;1.00;99.90;;;;;;5000486;28;20053;-75
2023/02/10 06:21:16;;;;;;;48.57;34.10;;;1.00;99.90;;;;;;4971517;28;20053;-75
2023/02/10 06:23:42;;;;;;;39.03;29.60;;;1.00;99.90;;;;;;4984627;28;20060;-75
2023/02/10 06:26:08;;;;;;;44.50;29.63;;;1.00;99.90;;;;;;4999531;28;20570;-75
2023/02/10 06:28:34;;;;;;;42.83;31.40;;;1.00;99.90;;;;;;5016556;28;20037;-75
2023/02/10 06:31:00;;;;;;;43.50;31.90;;;1.00;99.90;;;;;;4996637;28;20458;-75
2023/02/10 06:33:26;;;;;;;43.80;29.70;;;1.00;99.90;;;;;;4994290;28;20568;-75
2023/02/10 06:35:52;;;;;;;40.17;28.77;;;1.10;99.90;;;;;;4982547;28;20046;-75
2023/02/10 06:38:18;;;;;;;43.07;32.53;;;1.00;99.90;;;;;;5001186;28;20046;-76
2023/02/10 06:40:43;;;;;;;44.43;31.53;;;1.00;99.90;;;;;;4984011;28;20365;-76
2023/02/10 06:43:10;;;;;;;47.60;33.40;;;1.10;99.90;;;;;;4993157;28;20053;-75
2023/02/10 06:45:35;;;;;;;56.00;38.50;;;1.00;99.90;;;;;;4973843;28;20045;-75
2023/02/10 06:48:02;;;;;;;51.40;36.00;;;1.00;99.90;;;;;;4994465;28;20103;-76
2023/02/10 06:50:28;;;;;;;47.67;35.53;;;1.00;99.90;;;;;;4989653;28;20076;-75
2023/02/10 06:52:54;;;;;;;51.10;36.40;;;1.00;99.90;;;;;;4997203;28;20071;-75
2023/02/10 06:55:20;;;;;;;50.83;37.63;;;1.00;99.90;;;;;;4982805;28;20091;-76
2023/02/10 06:57:46;;;;;;;53.90;36.47;;;1.00;99.90;;;;;;4983529;28;20045;-76
2023/02/10 07:00:13;;;;;;;45.30;34.47;;;1.00;99.90;;;;;;4979847;28;20409;-74
2023/02/10 07:02:40;;;;;;;42.07;33.30;;;1.00;99.90;;;;;;5012197;28;20045;-75
2023/02/10 07:05:07;;;;;;;51.97;38.77;;;1.00;99.90;;;;;;4998662;28;20053;-75
2023/02/10 07:07:37;;;;;;;52.90;36.00;;;1.00;99.90;;;;;;4996147;28;20049;-75
2023/02/10 07:10:03;;;;;;;50.85;35.20;;;1.00;99.90;;;;;;5000170;28;20497;-75
2023/02/10 07:12:29;;;;;;;53.50;39.47;;;1.00;99.90;;;;;;5015993;28;20045;-75
2023/02/10 07:14:55;;;;;;;55.13;39.47;;;1.00;99.90;;;;;;4983151;28;20091;-74
2023/02/10 07:17:21;;;;;;;51.03;40.07;;;0.90;99.90;;;;;;4982432;28;20038;-77
2023/02/10 07:19:46;;;;;;;53.93;39.57;;;1.00;99.90;;;;;;5013789;28;20099;-77
2023/02/10 07:22:13;;;;;;;48.83;37.23;;;1.00;99.90;;;;;;4999167;28;20050;-77
2023/02/10 07:24:38;;;;;;;46.70;37.40;;;1.00;99.90;;;;;;4982593;28;20034;-77
2023/02/10 07:27:04;;;;;;;56.57;39.13;;;1.00;99.90;;;;;;4982826;28;20100;-77
2023/02/10 07:29:30;;;;;;;48.70;42.60;;;1.10;99.90;;;;;;5012269;28;20124;-77
2023/02/10 07:31:59;;;;;;;55.93;42.57;;;1.10;99.90;;;;;;4998037;28;20041;-77
2023/02/10 07:34:26;;;;;;;49.57;40.87;;;1.10;99.90;;;;;;4975581;28;20058;-77
2023/02/10 07:36:55;;;;;;;49.43;40.30;;;1.10;99.90;;;;;;5016804;28;20056;-75
2023/02/10 07:39:22;;;;;;;50.07;41.23;;;1.20;99.90;;;;;;4998714;28;20377;-74
2023/02/10 07:41:47;;;;;;;50.63;41.30;;;1.20;99.90;;;;;;5000618;28;20037;-74
2023/02/10 07:44:13;;;;;;;49.70;40.77;;;1.20;99.90;;;;;;5000590;28;20510;-75
2023/02/10 07:46:39;;;;;;;48.93;38.90;;;1.20;99.90;;;;;;4986644;28;20459;-76
2023/02/10 07:49:05;;;;;;;56.20;42.60;;;1.30;99.90;;;;;;4966402;28;20072;-76
2023/02/10 07:51:31;;;;;;;58.77;43.67;;;1.30;99.90;;;;;;4985343;28;20477;-75
2023/02/10 07:53:57;;;;;;;50.43;41.03;;;1.30;99.90;;;;;;5004266;28;20053;-74
2023/02/10 07:56:22;;;;;;;53.73;42.70;;;1.40;99.90;;;;;;5003760;28;20534;-72
2023/02/10 07:58:49;;;;;;;69.13;44.07;;;1.40;99.90;;;;;;5004713;28;20056;-72
2023/02/10 08:01:15;;;;;;;52.13;39.43;;;1.40;99.90;;;;;;5005241;28;20641;-72
2023/02/10 08:03:40;;;;;;;51.03;39.30;;;1.40;99.90;;;;;;5002790;28;20040;-72
2023/02/10 08:06:07;;;;;;;46.10;38.37;;;1.40;99.90;;;;;;5001030;28;20072;-72
2023/02/10 08:08:33;;;;;;;48.33;40.60;;;1.40;99.90;;;;;;5009129;28;20474;-72
2023/02/10 08:10:59;;;;;;;50.37;40.23;;;1.50;99.90;;;;;;5019769;28;20969;-74
2023/02/10 08:13:27;;;;;;;45.83;37.70;;;1.50;99.90;;;;;;5015961;28;20049;-71
2023/02/10 08:15:53;;;;;;;53.43;40.53;;;1.60;99.90;;;;;;5000454;28;20107;-74
2023/02/10 08:18:19;;;;;;;57.10;41.63;;;1.60;99.90;;;;;;5015514;28;20061;-76
2023/02/10 08:20:45;;;;;;;50.40;40.27;;;1.60;99.90;;;;;;5010743;28;20072;-74
2023/02/10 08:23:16;;;;;;;46.97;38.60;;;1.70;99.90;;;;;;5016364;28;20057;-74
2023/02/10 08:25:42;;;;;;;54.90;40.30;;;1.80;99.90;;;;;;4992023;28;20114;-74
2023/02/10 08:28:11;;;;;;;51.33;39.20;;;1.80;99.90;;;;;;5006381;28;20585;-72
2023/02/10 08:30:37;;;;;;;47.77;39.10;;;1.90;99.90;;;;;;5002938;28;20048;-72
2023/02/10 08:33:02;;;;;;;49.97;38.50;;;1.90;99.90;;;;;;5017566;28;20053;-72
2023/02/10 08:35:28;;;;;;;45.80;36.07;;;2.00;99.90;;;;;;4990482;28;20049;-71
2023/02/10 08:37:57;;;;;;;41.53;36.67;;;2.10;99.90;;;;;;4985846;28;20130;-72
2023/02/10 08:40:23;;;;;;;46.73;34.37;;;2.20;99.90;;;;;;5019702;28;20048;-72
2023/02/10 08:42:48;;;;;;;46.40;36.40;;;2.20;99.90;;;;;;4999402;28;20383;-72
2023/02/10 08:45:14;;;;;;;39.40;32.93;;;2.30;99.90;;;;;;5003451;28;20387;-72
2023/02/10 08:47:40;;;;;;;47.17;36.23;;;2.30;99.90;;;;;;4999175;28;20045;-72
2023/02/10 08:50:06;;;;;;;45.17;34.90;;;2.40;99.90;;;;;;4990550;28;20468;-73
2023/02/10 08:52:32;;;;;;;45.63;36.27;;;2.50;99.90;;;;;;5016870;28;20469;-73
2023/02/10 08:54:59;;;;;;;46.87;36.70;;;2.50;99.90;;;;;;4999723;28;20054;-73
2023/02/10 08:57:25;;;;;;;39.47;33.47;;;2.50;99.90;;;;;;4985011;28;20056;-73
2023/02/10 08:59:51;;;;;;;43.23;34.60;;;2.50;99.90;;;;;;4988981;28;20543;-73
2023/02/10 09:02:16;;;;;;;43.20;33.13;;;2.60;99.90;;;;;;5003604;28;20044;-73
2023/02/10 09:04:42;;;;;;;41.23;33.27;;;2.60;99.90;;;;;;4992489;28;20080;-73
2023/02/10 09:07:10;;;;;;;45.47;35.67;;;2.70;99.90;;;;;;5006143;28;20206;-73
2023/02/10 09:09:41;;;;;;;47.00;34.80;;;2.60;99.90;;;;;;5025866;28;20041;-73
2023/02/10 09:12:11;;;;;;;48.15;35.45;;;2.70;99.90;;;;;;5018917;28;20055;-73
2023/02/10 09:14:39;;;;;;;46.20;36.93;;;2.70;99.90;;;;;;4990979;28;20045;-73
2023/02/10 09:17:07;;;;;;;49.83;35.22;;;2.70;99.90;;;;;;4990222;28;20159;-73
2023/02/10 09:19:41;;;;;;;39.47;34.27;;;2.80;99.90;;;;;;4999268;28;20040;-73
2023/02/10 09:22:07;;;;;;;43.42;34.92;;;2.80;99.90;;;;;;4993320;28;20541;-73
2023/02/10 09:24:33;;;;;;;46.73;35.03;;;2.90;99.90;;;;;;4987980;28;20356;-72
2023/02/10 09:26:59;;;;;;;46.35;34.75;;;2.90;99.90;;;;;;4989172;28;20258;-72
2023/02/10 09:29:28;;;;;;;45.60;34.35;;;2.90;99.90;;;;;;4989346;28;20052;-73
2023/02/10 09:31:57;;;;;;;52.07;35.57;;;3.00;99.90;;;;;;4984521;28;20122;-73
2023/02/10 09:34:22;;;;;;;47.35;34.45;;;3.00;99.90;;;;;;4998957;28;20538;-73
2023/02/10 09:36:48;;;;;;;47.50;34.25;;;3.10;99.90;;;;;;5008036;28;20690;-73
2023/02/10 09:39:14;;;;;;;46.83;34.08;;;3.00;99.90;;;;;;4994001;28;20051;-73
2023/02/10 09:41:55;;;;;;;47.83;33.83;;;3.10;99.90;;;;;;4980153;28;20056;-75
2023/02/10 09:44:28;;;;;;;47.42;33.53;;;3.10;99.90;;;;;;5014040;28;20045;-73
2023/02/10 09:47:15;;;;;;;42.17;32.00;;;3.30;99.90;;;;;;5016312;28;20041;-75
2023/02/10 09:50:03;;;;;;;45.70;33.50;;;3.40;99.90;;;;;;5012908;28;20053;-75
2023/02/10 09:52:56;;;;;;;45.47;35.00;;;3.50;99.90;;;;;;5007565;28;20123;-75
2023/02/10 09:55:44;;;;;;;46.40;34.17;;;3.60;99.90;;;;;;4997818;28;20096;-75
2023/02/10 09:58:28;;;;;;;45.90;32.25;;;3.70;99.90;;;;;;5003637;28;20504;-75
2023/02/10 10:01:03;;;;;;;46.35;32.55;;;3.80;99.90;;;;;;5011674;28;20495;-75
2023/02/10 10:03:39;;;;;;;45.83;32.88;;;3.80;99.90;;;;;;5001346;28;20040;-73
2023/02/10 10:06:21;;;;;;;48.75;34.55;;;3.80;99.90;;;;;;5000218;28;20052;-74
2023/02/10 10:09:09;;;;;;;46.47;35.00;;;3.90;99.90;;;;;;5019540;28;20449;-73
2023/02/10 10:11:44;;;;;;;46.53;34.40;;;3.90;99.90;;;;;;5012988;28;20049;-74
2023/02/10 10:14:18;;;;;;;44.80;33.80;;;4.00;99.90;;;;;;5002205;28;20442;-73
2023/02/10 10:17:02;;;;;;;48.00;34.67;;;4.00;99.90;;;;;;5008667;28;20068;-73
2023/02/10 10:19:31;;;;;;;51.53;36.50;;;4.10;99.90;;;;;;5023109;28;20496;-73
2023/02/10 10:22:34;;;;;;;48.08;35.20;;;4.10;99.90;;;;;;5019205;28;20056;-74
2023/02/10 10:25:25;;;;;;;48.55;35.42;;;4.20;99.90;;;;;;4999058;28;20060;-74
2023/02/10 10:28:06;;;;;;;51.70;35.90;;;4.20;99.90;;;;;;4998608;28;20129;-73
2023/02/10 10:30:40;;;;;;;47.75;34.72;;;4.30;99.90;;;;;;4993286;28;20045;-73
2023/02/10 10:33:32;;;;;;;51.35;35.60;;;4.40;99.90;;;;;;4995879;28;20101;-74
2023/02/10 10:36:01;;;;;;;52.17;35.50;;;4.40;99.90;;;;;;4976945;28;20037;-75
2023/02/10 10:38:37;;;;;;;46.85;35.20;;;4.50;99.90;;;;;;5002214;28;20042;-75
2023/02/10 10:41:11;;;;;;;50.75;35.95;;;4.60;99.90;;;;;;5014775;28;20045;-75
2023/02/10 10:43:52;;;;;;;48.28;32.80;;;4.70;99.90;;;;;;5006596;28;20155;-75
2023/02/10 10:46:30;;;;;;;46.42;34.22;;;4.70;99.90;;;;;;5011025;28;20436;-74
2023/02/10 10:48:56;;;;;;;43.95;31.42;;;4.80;99.90;;;;;;4998145;28;20073;-73
2023/02/10 10:51:22;;;;;;;42.75;32.45;;;4.90;99.90;;;;;;5010216;28;20527;-75
2023/02/10 10:53:52;;;;;;;41.20;30.60;;;5.00;99.90;;;;;;5011150;28;20034;-75
2023/02/10 10:56:32;;;;;;;42.95;29.13;;;5.10;99.90;;;;;;5030210;28;20285;-74
2023/02/10 10:58:58;;;;;;;;;;;5.30;99.90;;;;;;5000582;28;21057;-73
2023/02/10 11:01:52;;;;;;;40.83;28.42;;;5.30;99.90;;;;;;5022523;28;19950;-73
2023/02/10 11:04:24;;;;;;;43.45;26.75;;;5.40;99.90;;;;;;4981176;28;20136;-73
2023/02/10 11:06:59;;;;;;;37.90;27.40;;;5.50;99.90;;;;;;5000944;28;20087;-73
2023/02/10 11:09:32;;;;;;;35.00;24.35;;;5.60;99.90;;;;;;5004551;28;20073;-74
2023/02/10 11:12:16;;;;;;;39.83;25.73;;;5.70;99.90;;;;;;5016389;28;20217;-74
2023/02/10 11:14:48;;;;;;;39.13;25.23;;;5.80;99.90;;;;;;5011372;28;20049;-73
2023/02/10 11:17:44;;;;;;;35.58;24.85;;;5.90;99.90;;;;;;4994277;28;20514;-74
2023/02/10 11:20:13;;;;;;;35.10;23.38;;;6.00;99.90;;;;;;4990311;28;20085;-75
2023/02/10 11:22:40;;;;;;;33.92;21.75;;;6.10;99.90;;;;;;5015263;28;20437;-74
2023/02/10 11:25:35;;;;;;;31.52;20.63;;;6.20;99.90;;;;;;4977583;28;20069;-73
2023/02/10 11:28:03;;;;;;;30.73;21.00;;;6.30;99.90;;;;;;5007958;28;20054;-73
2023/02/10 11:30:35;;;;;;;32.50;20.10;;;6.30;99.90;;;;;;5006728;28;20095;-73
2023/02/10 11:33:04;;;;;;;30.05;19.48;;;6.40;99.90;;;;;;5005858;28;20076;-75
2023/02/10 11:35:31;;;;;;;33.97;20.35;;;6.50;99.90;;;;;;5000442;28;20044;-73
2023/02/10 11:38:03;;;;;;;28.92;18.65;;;6.60;99.90;;;;;;4995184;28;20467;-74
2023/02/10 11:40:47;;;;;;;31.23;19.02;;;6.60;99.90;;;;;;5002952;28;20055;-73
2023/02/10 11:43:15;;;;;;;28.30;18.10;;;6.70;99.90;;;;;;4998103;28;20055;-74
2023/02/10 11:46:14;;;;;;;25.25;16.60;;;6.80;99.90;;;;;;4992736;28;20048;-74
2023/02/10 11:48:39;;;;;;;26.90;18.25;;;6.90;99.90;;;;;;4975988;28;20399;-75
2023/02/10 11:51:18;;;;;;;26.90;16.58;;;6.90;99.90;;;;;;4993379;28;20370;-73
2023/02/10 11:53:46;;;;;;;23.63;15.82;;;7.00;99.90;;;;;;4984743;28;20378;-75
2023/02/10 11:58:58;;;;;;;24.10;14.90;;;7.00;99.90;;;;;;4996209;28;20529;-75
2023/02/10 11:59:35;;;;;;;24.25;13.77;;;7.10;99.90;;;;;;5005972;28;20338;-74
2023/02/10 12:02:16;;;;;;;25.52;14.57;;;7.10;99.90;;;;;;5008119;28;20045;-74
2023/02/10 12:04:51;;;;;;;28.92;14.95;;;7.20;99.90;;;;;;5014507;28;20041;-75
2023/02/10 12:07:28;;;;;;;24.48;14.00;;;7.30;99.90;;;;;;5014105;28;20099;-74
2023/02/10 12:10:12;;;;;;;23.05;13.40;;;7.40;99.90;;;;;;5011778;28;20120;-73
2023/02/10 12:12:52;;;;;;;22.45;13.48;;;7.40;99.90;;;;;;5004353;28;21042;-73
2023/02/10 12:15:36;;;;;;;24.45;14.15;;;7.50;99.90;;;;;;4989653;28;20599;-73
2023/02/10 12:18:10;;;;;;;26.98;14.48;;;7.50;99.90;;;;;;5005321;28;20115;-74
2023/02/10 12:21:01;;;;;;;25.25;15.15;;;7.60;99.90;;;;;;4991538;28;20080;-74
2023/02/10 12:23:26;;;;;;;;;;;7.60;99.90;;;;;;4990303;28;20104;-74
2023/02/10 12:26:01;;;;;;;21.25;12.65;;;7.60;99.90;;;;;;4990058;28;20427;-74
2023/02/10 12:28:37;;;;;;;25.52;11.95;;;7.50;99.90;;;;;;4992847;28;20072;-74
2023/02/10 12:31:27;;;;;;;20.42;11.40;;;7.50;99.90;;;;;;5008764;28;20348;-73
2023/02/10 12:33:59;;;;;;;18.80;11.40;;;7.50;99.90;;;;;;5008525;28;20471;-74
2023/02/10 12:36:50;;;;;;;19.67;11.05;;;7.50;99.90;;;;;;5007318;28;20042;-77
2023/02/10 12:39:22;;;;;;;16.67;9.45;;;7.50;99.90;;;;;;5010195;28;20471;-76
2023/02/10 12:42:00;;;;;;;19.85;10.32;;;7.50;99.90;;;;;;5011957;28;20508;-76
2023/02/10 12:44:47;;;;;;;20.55;10.85;;;7.60;99.90;;;;;;4993847;28;20956;-76
2023/02/10 12:47:23;;;;;;;17.27;9.75;;;7.70;99.90;;;;;;5009649;28;20113;-76
2023/02/10 12:50:26;;;;;;;17.38;9.57;;;7.80;99.90;;;;;;5014799;28;20434;-76
2023/02/10 12:53:17;;;;;;;16.40;8.80;;;7.80;99.90;;;;;;4991635;28;20045;-77
2023/02/10 12:56:01;;;;;;;16.15;8.52;;;7.80;99.90;;;;;;5018639;28;20461;-75